sensor_id;sensor_type;location;lat;lon;timestamp;temperature;humidity
27114;DHT22;14648;49.730;8.614;2023-02-01T00:00:45;6.80;69.40
27114;DHT22;14648;49.730;8.614;2023-02-01T00:03:11;6.80;69.40
27114;DHT22;14648;49.730;8.614;2023-02-01T00:05:39;6.80;69.50
27114;DHT22;14648;49.730;8.614;2023-02-01T00:08:04;6.80;69.50
27114;DHT22;14648;49.730;8.614;2023-02-01T00:10:30;6.80;69.50
27114;DHT22;14648;49.730;8.614;2023-02-01T00:12:56;6.80;69.50
27114;DHT22;14648;49.730;8.614;2023-02-01T00:15:21;6.70;69.60
27114;DHT22;14648;49.730;8.614;2023-02-01T00:17:53;6.70;69.70
27114;DHT22;14648;49.730;8.614;2023-02-01T00:20:20;6.70;69.70
27114;DHT22;14648;49.730;8.614;2023-02-01T00:22:45;6.70;69.70
27114;DHT22;14648;49.730;8.614;2023-02-01T00:25:11;6.70;69.80
27114;DHT22;14648;49.730;8.614;2023-02-01T00:27:37;6.70;69.90
27114;DHT22;14648;49.730;8.614;2023-02-01T00:30:03;6.70;69.90
27114;DHT22;14648;49.730;8.614;2023-02-01T00:32:29;6.60;69.80
27114;DHT22;14648;49.730;8.614;2023-02-01T00:34:57;6.60;70.00
27114;DHT22;14648;49.730;8.614;2023-02-01T00:37:22;6.70;70.00
27114;DHT22;14648;49.730;8.614;2023-02-01T00:39:48;6.60;70.00
27114;DHT22;14648;49.730;8.614;2023-02-01T00:42:14;6.60;70.00
27114;DHT22;14648;49.730;8.614;2023-02-01T00:44:40;6.60;70.00
27114;DHT22;14648;49.730;8.614;2023-02-01T00:47:06;6.60;69.90
27114;DHT22;14648;49.730;8.614;2023-02-01T00:49:31;6.60;70.00
27114;DHT22;14648;49.730;8.614;2023-02-01T00:51:57;6.60;69.90
27114;DHT22;14648;49.730;8.614;2023-02-01T00:54:26;6.60;70.00
27114;DHT22;14648;49.730;8.614;2023-02-01T00:56:52;6.60;69.90
27114;DHT22;14648;49.730;8.614;2023-02-01T00:59:18;6.60;69.90
27114;DHT22;14648;49.730;8.614;2023-02-01T01:01:43;6.70;70.00
27114;DHT22;14648;49.730;8.614;2023-02-01T01:04:09;6.60;69.90
27114;DHT22;14648;49.730;8.614;2023-02-01T01:06:35;6.60;70.00
27114;DHT22;14648;49.730;8.614;2023-02-01T01:09:04;6.60;69.90
27114;DHT22;14648;49.730;8.614;2023-02-01T01:11:34;6.60;69.90
27114;DHT22;14648;49.730;8.614;2023-02-01T01:14:01;6.70;69.90
27114;DHT22;14648;49.730;8.614;2023-02-01T01:16:28;6.70;69.80
27114;DHT22;14648;49.730;8.614;2023-02-01T01:18:55;6.70;69.80
27114;DHT22;14648;49.730;8.614;2023-02-01T01:21:22;6.70;69.80
27114;DHT22;14648;49.730;8.614;2023-02-01T01:23:47;6.70;69.80
27114;DHT22;14648;49.730;8.614;2023-02-01T01:26:24;6.70;69.80
27114;DHT22;14648;49.730;8.614;2023-02-01T01:28:52;6.70;69.80
27114;DHT22;14648;49.730;8.614;2023-02-01T01:31:19;6.70;69.80
27114;DHT22;14648;49.730;8.614;2023-02-01T01:33:53;6.70;69.80
27114;DHT22;14648;49.730;8.614;2023-02-01T01:36:21;6.70;69.70
27114;DHT22;14648;49.730;8.614;2023-02-01T01:38:47;6.70;69.70
27114;DHT22;14648;49.730;8.614;2023-02-01T01:41:17;6.70;69.70
27114;DHT22;14648;49.730;8.614;2023-02-01T01:43:59;6.70;69.70
27114;DHT22;14648;49.730;8.614;2023-02-01T01:46:38;6.70;69.80
27114;DHT22;14648;49.730;8.614;2023-02-01T01:49:14;6.70;69.90
27114;DHT22;14648;49.730;8.614;2023-02-01T01:51:48;6.70;70.00
27114;DHT22;14648;49.730;8.614;2023-02-01T01:54:38;6.60;69.90
27114;DHT22;14648;49.730;8.614;2023-02-01T01:57:23;6.70;70.10
27114;DHT22;14648;49.730;8.614;2023-02-01T02:00:10;6.60;70.10
27114;DHT22;14648;49.730;8.614;2023-02-01T02:02:45;6.60;70.20
27114;DHT22;14648;49.730;8.614;2023-02-01T02:05:13;6.60;70.20
27114;DHT22;14648;49.730;8.614;2023-02-01T02:07:45;6.60;70.20
27114;DHT22;14648;49.730;8.614;2023-02-01T02:10:13;6.50;70.30
27114;DHT22;14648;49.730;8.614;2023-02-01T02:12:42;6.50;70.40
27114;DHT22;14648;49.730;8.614;2023-02-01T02:15:12;6.50;70.40
27114;DHT22;14648;49.730;8.614;2023-02-01T02:26:26;6.40;70.40
27114;DHT22;14648;49.730;8.614;2023-02-01T02:35:36;6.40;70.40
27114;DHT22;14648;49.730;8.614;2023-02-01T02:41:01;6.40;70.40
27114;DHT22;14648;49.730;8.614;2023-02-01T02:43:52;6.40;70.50
27114;DHT22;14648;49.730;8.614;2023-02-01T02:46:46;6.40;70.60
27114;DHT22;14648;49.730;8.614;2023-02-01T02:49:49;6.40;70.50
27114;DHT22;14648;49.730;8.614;2023-02-01T02:52:45;6.40;70.60
27114;DHT22;14648;49.730;8.614;2023-02-01T02:55:59;6.40;70.60
27114;DHT22;14648;49.730;8.614;2023-02-01T02:58:45;6.40;70.60
27114;DHT22;14648;49.730;8.614;2023-02-01T03:01:30;6.50;70.70
27114;DHT22;14648;49.730;8.614;2023-02-01T03:04:15;6.50;70.70
27114;DHT22;14648;49.730;8.614;2023-02-01T03:06:44;6.50;71.20
27114;DHT22;14648;49.730;8.614;2023-02-01T03:09:24;6.50;70.80
27114;DHT22;14648;49.730;8.614;2023-02-01T03:11:57;6.40;70.80
27114;DHT22;14648;49.730;8.614;2023-02-01T03:14:47;6.40;71.00
27114;DHT22;14648;49.730;8.614;2023-02-01T03:17:21;6.50;71.10
27114;DHT22;14648;49.730;8.614;2023-02-01T03:19:52;6.50;71.10
27114;DHT22;14648;49.730;8.614;2023-02-01T03:22:24;6.50;71.20
27114;DHT22;14648;49.730;8.614;2023-02-01T03:25:00;6.50;71.20
27114;DHT22;14648;49.730;8.614;2023-02-01T03:27:51;6.50;71.20
27114;DHT22;14648;49.730;8.614;2023-02-01T03:32:56;6.50;71.20
27114;DHT22;14648;49.730;8.614;2023-02-01T03:35:46;6.50;71.20
27114;DHT22;14648;49.730;8.614;2023-02-01T03:46:41;6.50;71.50
27114;DHT22;14648;49.730;8.614;2023-02-01T03:49:17;6.50;71.60
27114;DHT22;14648;49.730;8.614;2023-02-01T03:51:47;6.50;71.70
27114;DHT22;14648;49.730;8.614;2023-02-01T03:54:15;6.50;71.70
27114;DHT22;14648;49.730;8.614;2023-02-01T03:56:44;6.50;71.80
27114;DHT22;14648;49.730;8.614;2023-02-01T03:59:12;6.50;72.00
27114;DHT22;14648;49.730;8.614;2023-02-01T04:01:39;6.50;72.00
27114;DHT22;14648;49.730;8.614;2023-02-01T04:04:06;6.50;72.00
27114;DHT22;14648;49.730;8.614;2023-02-01T04:06:32;6.50;72.10
27114;DHT22;14648;49.730;8.614;2023-02-01T04:08:57;6.60;72.30
27114;DHT22;14648;49.730;8.614;2023-02-01T04:11:24;6.50;72.30
27114;DHT22;14648;49.730;8.614;2023-02-01T04:13:50;6.50;72.30
27114;DHT22;14648;49.730;8.614;2023-02-01T04:16:16;6.60;72.30
27114;DHT22;14648;49.730;8.614;2023-02-01T04:18:41;6.50;72.30
27114;DHT22;14648;49.730;8.614;2023-02-01T04:21:10;6.50;72.40
27114;DHT22;14648;49.730;8.614;2023-02-01T04:23:36;6.60;72.40
27114;DHT22;14648;49.730;8.614;2023-02-01T04:26:03;6.60;72.50
27114;DHT22;14648;49.730;8.614;2023-02-01T04:28:30;6.50;72.50
27114;DHT22;14648;49.730;8.614;2023-02-01T04:30:57;6.50;72.50
27114;DHT22;14648;49.730;8.614;2023-02-01T04:33:23;6.50;72.50
27114;DHT22;14648;49.730;8.614;2023-02-01T04:35:49;6.60;73.30
27114;DHT22;14648;49.730;8.614;2023-02-01T04:38:14;6.60;72.60
27114;DHT22;14648;49.730;8.614;2023-02-01T04:40:40;6.50;72.60
27114;DHT22;14648;49.730;8.614;2023-02-01T04:43:06;6.60;72.60
27114;DHT22;14648;49.730;8.614;2023-02-01T04:45:31;6.50;72.60
27114;DHT22;14648;49.730;8.614;2023-02-01T04:47:58;6.50;72.60
27114;DHT22;14648;49.730;8.614;2023-02-01T04:50:24;6.60;72.70
27114;DHT22;14648;49.730;8.614;2023-02-01T04:52:54;6.60;72.70
27114;DHT22;14648;49.730;8.614;2023-02-01T04:55:20;6.50;72.80
27114;DHT22;14648;49.730;8.614;2023-02-01T04:57:47;6.60;72.80
27114;DHT22;14648;49.730;8.614;2023-02-01T05:00:13;6.60;72.80
27114;DHT22;14648;49.730;8.614;2023-02-01T05:02:39;6.60;72.80
27114;DHT22;14648;49.730;8.614;2023-02-01T05:05:05;6.50;72.80
27114;DHT22;14648;49.730;8.614;2023-02-01T05:07:31;6.60;72.80
27114;DHT22;14648;49.730;8.614;2023-02-01T05:09:57;6.60;72.70
27114;DHT22;14648;49.730;8.614;2023-02-01T05:12:23;6.60;72.80
27114;DHT22;14648;49.730;8.614;2023-02-01T05:15:08;6.60;72.80
27114;DHT22;14648;49.730;8.614;2023-02-01T05:17:33;6.60;72.90
27114;DHT22;14648;49.730;8.614;2023-02-01T05:19:59;6.60;72.90
27114;DHT22;14648;49.730;8.614;2023-02-01T05:22:25;6.60;72.90
27114;DHT22;14648;49.730;8.614;2023-02-01T05:24:51;6.60;72.90
27114;DHT22;14648;49.730;8.614;2023-02-01T05:27:16;6.60;72.90
27114;DHT22;14648;49.730;8.614;2023-02-01T05:29:42;6.60;72.90
27114;DHT22;14648;49.730;8.614;2023-02-01T05:32:09;6.60;72.90
27114;DHT22;14648;49.730;8.614;2023-02-01T05:34:36;6.60;72.90
27114;DHT22;14648;49.730;8.614;2023-02-01T05:37:02;6.60;72.90
27114;DHT22;14648;49.730;8.614;2023-02-01T05:39:28;6.60;72.90
27114;DHT22;14648;49.730;8.614;2023-02-01T05:41:53;6.60;72.80
27114;DHT22;14648;49.730;8.614;2023-02-01T05:44:20;6.60;73.40
27114;DHT22;14648;49.730;8.614;2023-02-01T05:46:46;6.60;72.70
27114;DHT22;14648;49.730;8.614;2023-02-01T05:49:13;6.60;72.60
27114;DHT22;14648;49.730;8.614;2023-02-01T05:51:39;6.50;72.60
27114;DHT22;14648;49.730;8.614;2023-02-01T05:54:04;6.50;72.50
27114;DHT22;14648;49.730;8.614;2023-02-01T05:56:30;6.50;72.50
27114;DHT22;14648;49.730;8.614;2023-02-01T05:58:56;6.50;72.60
27114;DHT22;14648;49.730;8.614;2023-02-01T06:01:21;6.40;72.50
27114;DHT22;14648;49.730;8.614;2023-02-01T06:03:47;6.40;72.70
27114;DHT22;14648;49.730;8.614;2023-02-01T06:06:12;6.40;72.60
27114;DHT22;14648;49.730;8.614;2023-02-01T06:08:38;6.50;72.50
27114;DHT22;14648;49.730;8.614;2023-02-01T06:11:06;6.40;72.30
27114;DHT22;14648;49.730;8.614;2023-02-01T06:13:32;6.50;72.40
27114;DHT22;14648;49.730;8.614;2023-02-01T06:15:58;6.50;72.40
27114;DHT22;14648;49.730;8.614;2023-02-01T06:18:24;6.50;72.40
27114;DHT22;14648;49.730;8.614;2023-02-01T06:20:58;6.50;72.30
27114;DHT22;14648;49.730;8.614;2023-02-01T06:23:28;6.50;72.40
27114;DHT22;14648;49.730;8.614;2023-02-01T06:26:00;6.50;72.40
27114;DHT22;14648;49.730;8.614;2023-02-01T06:28:33;6.50;72.40
27114;DHT22;14648;49.730;8.614;2023-02-01T06:31:04;6.50;72.50
27114;DHT22;14648;49.730;8.614;2023-02-01T06:33:32;6.50;72.50
27114;DHT22;14648;49.730;8.614;2023-02-01T06:36:00;6.50;72.40
27114;DHT22;14648;49.730;8.614;2023-02-01T06:38:29;6.50;72.40
27114;DHT22;14648;49.730;8.614;2023-02-01T06:41:01;6.50;72.40
27114;DHT22;14648;49.730;8.614;2023-02-01T06:43:28;6.50;72.50
27114;DHT22;14648;49.730;8.614;2023-02-01T06:45:53;6.60;72.40
27114;DHT22;14648;49.730;8.614;2023-02-01T06:48:24;6.50;72.40
27114;DHT22;14648;49.730;8.614;2023-02-01T06:50:49;6.50;72.50
27114;DHT22;14648;49.730;8.614;2023-02-01T06:53:19;6.50;72.50
27114;DHT22;14648;49.730;8.614;2023-02-01T06:55:55;6.50;72.60
27114;DHT22;14648;49.730;8.614;2023-02-01T06:58:31;6.50;72.70
27114;DHT22;14648;49.730;8.614;2023-02-01T07:01:05;6.60;72.70
27114;DHT22;14648;49.730;8.614;2023-02-01T07:03:31;6.60;72.70
27114;DHT22;14648;49.730;8.614;2023-02-01T07:05:57;6.60;72.60
27114;DHT22;14648;49.730;8.614;2023-02-01T07:08:30;6.60;72.60
27114;DHT22;14648;49.730;8.614;2023-02-01T07:11:11;6.60;72.50
27114;DHT22;14648;49.730;8.614;2023-02-01T07:13:38;6.60;72.60
27114;DHT22;14648;49.730;8.614;2023-02-01T07:16:06;6.50;72.60
27114;DHT22;14648;49.730;8.614;2023-02-01T07:18:34;6.60;72.60
27114;DHT22;14648;49.730;8.614;2023-02-01T07:21:00;6.50;72.60
27114;DHT22;14648;49.730;8.614;2023-02-01T07:23:27;6.50;72.50
27114;DHT22;14648;49.730;8.614;2023-02-01T07:25:57;6.50;72.50
27114;DHT22;14648;49.730;8.614;2023-02-01T07:28:25;6.40;72.40
27114;DHT22;14648;49.730;8.614;2023-02-01T07:30:52;6.50;72.50
27114;DHT22;14648;49.730;8.614;2023-02-01T07:33:22;6.40;72.40
27114;DHT22;14648;49.730;8.614;2023-02-01T07:35:50;6.40;72.30
27114;DHT22;14648;49.730;8.614;2023-02-01T07:38:17;6.40;72.30
27114;DHT22;14648;49.730;8.614;2023-02-01T07:40:43;6.30;72.30
27114;DHT22;14648;49.730;8.614;2023-02-01T07:43:09;6.30;72.30
27114;DHT22;14648;49.730;8.614;2023-02-01T07:45:36;6.40;72.30
27114;DHT22;14648;49.730;8.614;2023-02-01T07:48:02;6.30;72.30
27114;DHT22;14648;49.730;8.614;2023-02-01T07:50:29;6.30;72.20
27114;DHT22;14648;49.730;8.614;2023-02-01T07:52:55;6.30;72.10
27114;DHT22;14648;49.730;8.614;2023-02-01T07:55:21;6.30;72.10
27114;DHT22;14648;49.730;8.614;2023-02-01T07:57:49;6.30;72.20
27114;DHT22;14648;49.730;8.614;2023-02-01T08:00:15;6.30;72.10
27114;DHT22;14648;49.730;8.614;2023-02-01T08:03:00;6.30;71.90
27114;DHT22;14648;49.730;8.614;2023-02-01T08:05:26;6.30;72.70
27114;DHT22;14648;49.730;8.614;2023-02-01T08:07:53;6.30;72.00
27114;DHT22;14648;49.730;8.614;2023-02-01T08:10:19;6.40;71.80
27114;DHT22;14648;49.730;8.614;2023-02-01T08:12:45;6.40;71.80
27114;DHT22;14648;49.730;8.614;2023-02-01T08:15:14;6.40;71.70
27114;DHT22;14648;49.730;8.614;2023-02-01T08:17:47;6.30;71.80
27114;DHT22;14648;49.730;8.614;2023-02-01T08:20:13;6.30;71.80
27114;DHT22;14648;49.730;8.614;2023-02-01T08:22:39;6.40;71.70
27114;DHT22;14648;49.730;8.614;2023-02-01T08:25:05;6.30;71.60
27114;DHT22;14648;49.730;8.614;2023-02-01T08:27:34;6.30;71.60
27114;DHT22;14648;49.730;8.614;2023-02-01T08:30:00;6.30;71.50
27114;DHT22;14648;49.730;8.614;2023-02-01T08:32:26;6.40;71.50
27114;DHT22;14648;49.730;8.614;2023-02-01T08:34:52;6.40;71.40
27114;DHT22;14648;49.730;8.614;2023-02-01T08:37:18;6.50;71.30
27114;DHT22;14648;49.730;8.614;2023-02-01T08:39:44;6.50;71.30
27114;DHT22;14648;49.730;8.614;2023-02-01T08:42:11;6.50;71.20
27114;DHT22;14648;49.730;8.614;2023-02-01T08:44:56;6.50;71.10
27114;DHT22;14648;49.730;8.614;2023-02-01T08:47:22;6.60;71.00
27114;DHT22;14648;49.730;8.614;2023-02-01T08:49:48;6.50;71.10
27114;DHT22;14648;49.730;8.614;2023-02-01T08:52:13;6.60;71.10
27114;DHT22;14648;49.730;8.614;2023-02-01T08:54:39;6.60;71.20
27114;DHT22;14648;49.730;8.614;2023-02-01T08:57:06;6.70;71.40
27114;DHT22;14648;49.730;8.614;2023-02-01T08:59:32;6.70;71.40
27114;DHT22;14648;49.730;8.614;2023-02-01T09:01:58;6.70;71.40
27114;DHT22;14648;49.730;8.614;2023-02-01T09:04:25;6.80;71.30
27114;DHT22;14648;49.730;8.614;2023-02-01T09:06:51;6.80;71.40
27114;DHT22;14648;49.730;8.614;2023-02-01T09:09:17;6.80;71.30
27114;DHT22;14648;49.730;8.614;2023-02-01T09:11:43;6.90;71.50
27114;DHT22;14648;49.730;8.614;2023-02-01T09:14:08;6.90;71.50
27114;DHT22;14648;49.730;8.614;2023-02-01T09:16:35;6.90;71.60
27114;DHT22;14648;49.730;8.614;2023-02-01T09:19:01;6.90;71.50
27114;DHT22;14648;49.730;8.614;2023-02-01T09:21:27;6.90;71.60
27114;DHT22;14648;49.730;8.614;2023-02-01T09:23:53;7.00;71.60
27114;DHT22;14648;49.730;8.614;2023-02-01T09:26:19;7.00;71.60
27114;DHT22;14648;49.730;8.614;2023-02-01T09:28:44;7.00;71.50
27114;DHT22;14648;49.730;8.614;2023-02-01T09:31:10;7.00;71.60
27114;DHT22;14648;49.730;8.614;2023-02-01T09:33:36;7.00;71.50
27114;DHT22;14648;49.730;8.614;2023-02-01T09:36:04;7.00;71.50
27114;DHT22;14648;49.730;8.614;2023-02-01T09:38:31;7.10;71.60
27114;DHT22;14648;49.730;8.614;2023-02-01T09:40:58;7.10;71.50
27114;DHT22;14648;49.730;8.614;2023-02-01T09:46:24;7.20;71.40
27114;DHT22;14648;49.730;8.614;2023-02-01T09:48:54;7.20;71.30
27114;DHT22;14648;49.730;8.614;2023-02-01T09:51:30;7.30;71.30
27114;DHT22;14648;49.730;8.614;2023-02-01T09:54:04;7.30;71.20
27114;DHT22;14648;49.730;8.614;2023-02-01T09:56:39;7.40;71.20
27114;DHT22;14648;49.730;8.614;2023-02-01T09:59:43;7.40;71.20
27114;DHT22;14648;49.730;8.614;2023-02-01T10:02:26;7.40;71.10
27114;DHT22;14648;49.730;8.614;2023-02-01T10:04:59;7.40;71.00
27114;DHT22;14648;49.730;8.614;2023-02-01T10:07:56;7.40;71.10
27114;DHT22;14648;49.730;8.614;2023-02-01T10:10:47;7.40;71.00
27114;DHT22;14648;49.730;8.614;2023-02-01T10:13:25;7.40;70.90
27114;DHT22;14648;49.730;8.614;2023-02-01T10:19:20;7.40;70.80
27114;DHT22;14648;49.730;8.614;2023-02-01T10:22:10;7.40;70.70
27114;DHT22;14648;49.730;8.614;2023-02-01T10:25:14;7.40;70.60
27114;DHT22;14648;49.730;8.614;2023-02-01T10:27:45;7.40;70.40
27114;DHT22;14648;49.730;8.614;2023-02-01T10:30:25;7.50;70.50
27114;DHT22;14648;49.730;8.614;2023-02-01T10:32:56;7.50;70.30
27114;DHT22;14648;49.730;8.614;2023-02-01T10:35:31;7.50;70.30
27114;DHT22;14648;49.730;8.614;2023-02-01T10:38:02;7.50;70.10
27114;DHT22;14648;49.730;8.614;2023-02-01T10:40:30;7.60;70.10
27114;DHT22;14648;49.730;8.614;2023-02-01T10:43:02;7.60;69.80
27114;DHT22;14648;49.730;8.614;2023-02-01T10:45:30;7.60;69.40
27114;DHT22;14648;49.730;8.614;2023-02-01T10:47:58;7.60;69.30
27114;DHT22;14648;49.730;8.614;2023-02-01T10:50:38;7.70;69.10
27114;DHT22;14648;49.730;8.614;2023-02-01T10:53:18;7.70;68.80
27114;DHT22;14648;49.730;8.614;2023-02-01T10:55:55;7.80;68.70
27114;DHT22;14648;49.730;8.614;2023-02-01T10:58:28;7.80;68.30
27114;DHT22;14648;49.730;8.614;2023-02-01T11:01:05;7.80;68.10
27114;DHT22;14648;49.730;8.614;2023-02-01T11:08:51;7.80;67.20
27114;DHT22;14648;49.730;8.614;2023-02-01T11:11:19;7.90;67.20
27114;DHT22;14648;49.730;8.614;2023-02-01T11:13:56;7.90;66.90
27114;DHT22;14648;49.730;8.614;2023-02-01T11:16:30;7.90;66.40
27114;DHT22;14648;49.730;8.614;2023-02-01T11:18:59;7.90;66.00
27114;DHT22;14648;49.730;8.614;2023-02-01T11:21:25;7.80;65.80
27114;DHT22;14648;49.730;8.614;2023-02-01T11:23:51;7.90;65.70
27114;DHT22;14648;49.730;8.614;2023-02-01T11:26:22;7.90;65.40
27114;DHT22;14648;49.730;8.614;2023-02-01T11:29:12;7.90;65.20
27114;DHT22;14648;49.730;8.614;2023-02-01T11:31:40;7.90;64.80
27114;DHT22;14648;49.730;8.614;2023-02-01T11:34:15;7.90;64.70
27114;DHT22;14648;49.730;8.614;2023-02-01T11:36:45;7.90;64.30
27114;DHT22;14648;49.730;8.614;2023-02-01T11:42:04;7.90;64.00
27114;DHT22;14648;49.730;8.614;2023-02-01T11:44:44;7.90;63.70
27114;DHT22;14648;49.730;8.614;2023-02-01T11:47:25;7.90;63.60
27114;DHT22;14648;49.730;8.614;2023-02-01T11:50:00;7.90;63.40
27114;DHT22;14648;49.730;8.614;2023-02-01T11:56:18;7.90;63.40
27114;DHT22;14648;49.730;8.614;2023-02-01T11:58:50;7.90;63.40
27114;DHT22;14648;49.730;8.614;2023-02-01T12:04:48;7.90;63.30
27114;DHT22;14648;49.730;8.614;2023-02-01T12:17:11;8.10;62.90
27114;DHT22;14648;49.730;8.614;2023-02-01T12:26:35;8.20;62.00
27114;DHT22;14648;49.730;8.614;2023-02-01T12:35:09;8.20;61.40
27114;DHT22;14648;49.730;8.614;2023-02-01T12:38:06;8.20;61.10
27114;DHT22;14648;49.730;8.614;2023-02-01T12:40:49;8.20;60.90
27114;DHT22;14648;49.730;8.614;2023-02-01T12:43:35;8.10;60.70
27114;DHT22;14648;49.730;8.614;2023-02-01T12:46:12;8.10;60.50
27114;DHT22;14648;49.730;8.614;2023-02-01T12:48:55;8.20;60.40
27114;DHT22;14648;49.730;8.614;2023-02-01T12:51:28;8.20;60.30
27114;DHT22;14648;49.730;8.614;2023-02-01T12:54:10;8.20;60.40
27114;DHT22;14648;49.730;8.614;2023-02-01T12:59:40;8.30;60.20
27114;DHT22;14648;49.730;8.614;2023-02-01T13:02:27;8.40;60.00
27114;DHT22;14648;49.730;8.614;2023-02-01T13:05:18;8.40;59.90
27114;DHT22;14648;49.730;8.614;2023-02-01T13:07:51;8.40;59.50
27114;DHT22;14648;49.730;8.614;2023-02-01T13:13:13;8.40;59.10
27114;DHT22;14648;49.730;8.614;2023-02-01T13:16:17;8.40;59.10
27114;DHT22;14648;49.730;8.614;2023-02-01T13:18:52;8.40;59.10
27114;DHT22;14648;49.730;8.614;2023-02-01T13:21:28;8.30;59.10
27114;DHT22;14648;49.730;8.614;2023-02-01T13:23:58;8.30;59.20
27114;DHT22;14648;49.730;8.614;2023-02-01T13:26:24;8.30;59.20
27114;DHT22;14648;49.730;8.614;2023-02-01T13:29:03;8.30;59.10
27114;DHT22;14648;49.730;8.614;2023-02-01T13:32:04;8.20;58.80
27114;DHT22;14648;49.730;8.614;2023-02-01T13:35:03;8.20;58.70
27114;DHT22;14648;49.730;8.614;2023-02-01T13:38:19;8.20;58.80
27114;DHT22;14648;49.730;8.614;2023-02-01T13:41:15;8.10;58.60
27114;DHT22;14648;49.730;8.614;2023-02-01T13:43:54;8.10;59.00
27114;DHT22;14648;49.730;8.614;2023-02-01T13:46:24;8.00;58.30
27114;DHT22;14648;49.730;8.614;2023-02-01T13:48:56;8.10;58.40
27114;DHT22;14648;49.730;8.614;2023-02-01T13:51:41;8.00;58.20
27114;DHT22;14648;49.730;8.614;2023-02-01T13:56:53;8.00;58.40
27114;DHT22;14648;49.730;8.614;2023-02-01T14:13:39;8.00;58.50
27114;DHT22;14648;49.730;8.614;2023-02-01T14:16:11;8.00;58.50
27114;DHT22;14648;49.730;8.614;2023-02-01T14:21:17;7.90;58.70
27114;DHT22;14648;49.730;8.614;2023-02-01T14:23:45;8.00;58.80
27114;DHT22;14648;49.730;8.614;2023-02-01T14:26:16;8.00;58.80
27114;DHT22;14648;49.730;8.614;2023-02-01T14:29:00;8.00;58.90
27114;DHT22;14648;49.730;8.614;2023-02-01T14:32:00;7.90;58.90
27114;DHT22;14648;49.730;8.614;2023-02-01T14:37:30;7.90;58.90
27114;DHT22;14648;49.730;8.614;2023-02-01T14:42:47;8.00;59.00
27114;DHT22;14648;49.730;8.614;2023-02-01T14:53:17;8.00;58.80
27114;DHT22;14648;49.730;8.614;2023-02-01T14:58:40;8.00;59.30
27114;DHT22;14648;49.730;8.614;2023-02-01T15:03:56;8.00;58.40
27114;DHT22;14648;49.730;8.614;2023-02-01T15:09:29;8.10;58.40
27114;DHT22;14648;49.730;8.614;2023-02-01T15:12:14;8.10;58.30
27114;DHT22;14648;49.730;8.614;2023-02-01T15:15:11;8.10;58.30
27114;DHT22;14648;49.730;8.614;2023-02-01T15:17:58;8.10;58.10
27114;DHT22;14648;49.730;8.614;2023-02-01T15:20:32;8.10;58.10
27114;DHT22;14648;49.730;8.614;2023-02-01T15:23:04;8.20;58.10
27114;DHT22;14648;49.730;8.614;2023-02-01T15:25:39;8.20;58.00
27114;DHT22;14648;49.730;8.614;2023-02-01T15:28:09;8.20;58.00
27114;DHT22;14648;49.730;8.614;2023-02-01T15:30:38;8.20;57.90
27114;DHT22;14648;49.730;8.614;2023-02-01T15:33:13;8.20;57.70
27114;DHT22;14648;49.730;8.614;2023-02-01T15:41:04;8.30;57.20
27114;DHT22;14648;49.730;8.614;2023-02-01T15:43:43;8.30;57.10
27114;DHT22;14648;49.730;8.614;2023-02-01T15:46:32;8.30;57.00
27114;DHT22;14648;49.730;8.614;2023-02-01T15:49:03;8.30;56.70
27114;DHT22;14648;49.730;8.614;2023-02-01T15:51:31;8.30;56.90
27114;DHT22;14648;49.730;8.614;2023-02-01T15:54:06;8.30;56.90
27114;DHT22;14648;49.730;8.614;2023-02-01T15:56:37;8.30;56.80
27114;DHT22;14648;49.730;8.614;2023-02-01T15:59:12;8.30;56.90
27114;DHT22;14648;49.730;8.614;2023-02-01T16:01:41;8.30;56.90
27114;DHT22;14648;49.730;8.614;2023-02-01T16:04:17;8.30;57.00
27114;DHT22;14648;49.730;8.614;2023-02-01T16:09:22;8.30;57.00
27114;DHT22;14648;49.730;8.614;2023-02-01T16:11:59;8.20;56.70
27114;DHT22;14648;49.730;8.614;2023-02-01T16:14:26;8.20;56.70
27114;DHT22;14648;49.730;8.614;2023-02-01T16:16:56;8.20;56.80
27114;DHT22;14648;49.730;8.614;2023-02-01T16:19:23;8.20;56.70
27114;DHT22;14648;49.730;8.614;2023-02-01T16:21:53;8.20;56.90
27114;DHT22;14648;49.730;8.614;2023-02-01T16:24:20;8.20;56.90
27114;DHT22;14648;49.730;8.614;2023-02-01T16:26:48;8.20;56.90
27114;DHT22;14648;49.730;8.614;2023-02-01T16:29:14;8.10;57.00
27114;DHT22;14648;49.730;8.614;2023-02-01T16:31:41;8.10;57.00
27114;DHT22;14648;49.730;8.614;2023-02-01T16:34:13;8.10;57.00
27114;DHT22;14648;49.730;8.614;2023-02-01T16:36:43;8.10;57.10
27114;DHT22;14648;49.730;8.614;2023-02-01T16:39:17;8.10;57.10
27114;DHT22;14648;49.730;8.614;2023-02-01T16:41:45;8.10;57.10
27114;DHT22;14648;49.730;8.614;2023-02-01T16:44:11;8.10;57.10
27114;DHT22;14648;49.730;8.614;2023-02-01T16:46:44;8.10;57.10
27114;DHT22;14648;49.730;8.614;2023-02-01T16:49:24;8.00;57.10
27114;DHT22;14648;49.730;8.614;2023-02-01T16:51:51;8.00;57.00
27114;DHT22;14648;49.730;8.614;2023-02-01T16:54:21;8.00;57.10
27114;DHT22;14648;49.730;8.614;2023-02-01T16:56:48;8.00;57.20
27114;DHT22;14648;49.730;8.614;2023-02-01T16:59:15;8.00;57.20
27114;DHT22;14648;49.730;8.614;2023-02-01T17:01:41;8.00;57.20
27114;DHT22;14648;49.730;8.614;2023-02-01T17:04:09;8.00;57.10
27114;DHT22;14648;49.730;8.614;2023-02-01T17:06:38;8.00;57.20
27114;DHT22;14648;49.730;8.614;2023-02-01T17:09:08;8.00;57.00
27114;DHT22;14648;49.730;8.614;2023-02-01T17:11:34;8.00;57.10
27114;DHT22;14648;49.730;8.614;2023-02-01T17:14:17;8.00;57.00
27114;DHT22;14648;49.730;8.614;2023-02-01T17:16:48;8.00;57.00
27114;DHT22;14648;49.730;8.614;2023-02-01T17:19:18;8.00;57.10
27114;DHT22;14648;49.730;8.614;2023-02-01T17:21:50;8.00;57.10
27114;DHT22;14648;49.730;8.614;2023-02-01T17:24:23;8.00;57.10
27114;DHT22;14648;49.730;8.614;2023-02-01T17:26:57;8.00;57.10
27114;DHT22;14648;49.730;8.614;2023-02-01T17:29:23;7.90;57.20
27114;DHT22;14648;49.730;8.614;2023-02-01T17:31:53;7.90;57.20
27114;DHT22;14648;49.730;8.614;2023-02-01T17:34:20;7.90;57.20
27114;DHT22;14648;49.730;8.614;2023-02-01T17:36:49;7.90;57.30
27114;DHT22;14648;49.730;8.614;2023-02-01T17:39:16;7.90;57.30
27114;DHT22;14648;49.730;8.614;2023-02-01T17:42:02;7.90;57.40
27114;DHT22;14648;49.730;8.614;2023-02-01T17:44:29;7.90;57.40
27114;DHT22;14648;49.730;8.614;2023-02-01T17:46:54;7.90;57.40
27114;DHT22;14648;49.730;8.614;2023-02-01T17:49:25;7.90;57.50
27114;DHT22;14648;49.730;8.614;2023-02-01T17:51:58;7.90;57.50
27114;DHT22;14648;49.730;8.614;2023-02-01T17:54:23;7.80;57.40
27114;DHT22;14648;49.730;8.614;2023-02-01T17:56:53;7.80;57.40
27114;DHT22;14648;49.730;8.614;2023-02-01T17:59:23;7.80;57.50
27114;DHT22;14648;49.730;8.614;2023-02-01T18:01:50;7.80;57.60
27114;DHT22;14648;49.730;8.614;2023-02-01T18:04:18;7.80;57.60
27114;DHT22;14648;49.730;8.614;2023-02-01T18:06:48;7.80;57.60
27114;DHT22;14648;49.730;8.614;2023-02-01T18:09:15;7.80;57.80
27114;DHT22;14648;49.730;8.614;2023-02-01T18:11:43;7.70;57.80
27114;DHT22;14648;49.730;8.614;2023-02-01T18:14:11;7.70;57.80
27114;DHT22;14648;49.730;8.614;2023-02-01T18:16:40;7.80;57.80
27114;DHT22;14648;49.730;8.614;2023-02-01T18:19:06;7.70;58.50
27114;DHT22;14648;49.730;8.614;2023-02-01T18:21:36;7.70;57.70